sensor_id;sensor_type;location;lat;lon;timestamp;P1;durP1;ratioP1;P2;durP2;ratioP2
6027;SDS011;3042;43.194;27.646;2023-05-10T00:02:14;31.13;;;28.40;;
6027;SDS011;3042;43.194;27.646;2023-05-10T00:04:41;29.20;;;26.10;;
6027;SDS011;3042;43.194;27.646;2023-05-10T00:07:10;28.50;;;26.07;;
6027;SDS011;3042;43.194;27.646;2023-05-10T00:09:37;41.43;;;26.73;;
6027;SDS011;3042;43.194;27.646;2023-05-10T00:12:04;32.57;;;27.27;;
6027;SDS011;3042;43.194;27.646;2023-05-10T00:14:31;44.37;;;29.17;;
6027;SDS011;3042;43.194;27.646;2023-05-10T00:16:59;44.13;;;27.80;;
6027;SDS011;3042;43.194;27.646;2023-05-10T00:19:26;46.40;;;28.90;;
6027;SDS011;3042;43.194;27.646;2023-05-10T00:21:53;68.93;;;31.07;;
6027;SDS011;3042;43.194;27.646;2023-05-10T00:24:22;59.03;;;29.83;;
6027;SDS011;3042;43.194;27.646;2023-05-10T00:26:49;97.17;;;34.03;;
6027;SDS011;3042;43.194;27.646;2023-05-10T00:29:16;75.20;;;29.97;;
6027;SDS011;3042;43.194;27.646;2023-05-10T00:31:43;51.53;;;31.60;;
6027;SDS011;3042;43.194;27.646;2023-05-10T00:34:10;98.03;;;35.33;;
6027;SDS011;3042;43.194;27.646;2023-05-10T00:36:37;41.33;;;31.43;;
6027;SDS011;3042;43.194;27.646;2023-05-10T00:39:04;55.73;;;31.83;;
6027;SDS011;3042;43.194;27.646;2023-05-10T00:41:33;86.00;;;34.97;;
6027;SDS011;3042;43.194;27.646;2023-05-10T00:44:00;77.70;;;35.53;;
6027;SDS011;3042;43.194;27.646;2023-05-10T00:46:27;62.00;;;33.83;;
6027;SDS011;3042;43.194;27.646;2023-05-10T00:48:56;63.13;;;36.30;;
6027;SDS011;3042;43.194;27.646;2023-05-10T00:51:23;50.33;;;35.93;;
6027;SDS011;3042;43.194;27.646;2023-05-10T00:53:51;75.93;;;45.17;;
6027;SDS011;3042;43.194;27.646;2023-05-10T00:56:18;57.47;;;36.53;;
6027;SDS011;3042;43.194;27.646;2023-05-10T00:58:49;77.23;;;37.00;;
6027;SDS011;3042;43.194;27.646;2023-05-10T01:01:17;81.70;;;36.53;;
6027;SDS011;3042;43.194;27.646;2023-05-10T01:03:44;39.10;;;31.20;;
6027;SDS011;3042;43.194;27.646;2023-05-10T01:06:12;53.87;;;32.67;;
6027;SDS011;3042;43.194;27.646;2023-05-10T01:08:39;57.80;;;35.80;;
6027;SDS011;3042;43.194;27.646;2023-05-10T01:11:07;62.47;;;32.33;;
6027;SDS011;3042;43.194;27.646;2023-05-10T01:13:35;41.23;;;33.50;;
6027;SDS011;3042;43.194;27.646;2023-05-10T01:16:06;39.80;;;33.37;;
6027;SDS011;3042;43.194;27.646;2023-05-10T01:18:34;57.17;;;33.00;;
6027;SDS011;3042;43.194;27.646;2023-05-10T01:21:10;59.83;;;33.10;;
6027;SDS011;3042;43.194;27.646;2023-05-10T01:27:19;52.97;;;32.70;;
6027;SDS011;3042;43.194;27.646;2023-05-10T01:30:20;55.47;;;44.10;;
6027;SDS011;3042;43.194;27.646;2023-05-10T01:33:04;34.30;;;30.90;;
6027;SDS011;3042;43.194;27.646;2023-05-10T01:35:38;60.60;;;35.10;;
6027;SDS011;3042;43.194;27.646;2023-05-10T01:38:10;43.63;;;38.00;;
6027;SDS011;3042;43.194;27.646;2023-05-10T01:40:46;34.33;;;30.77;;
6027;SDS011;3042;43.194;27.646;2023-05-10T01:43:22;36.27;;;31.67;;
6027;SDS011;3042;43.194;27.646;2023-05-10T01:45:57;33.83;;;30.23;;
6027;SDS011;3042;43.194;27.646;2023-05-10T01:48:31;53.83;;;33.67;;
6027;SDS011;3042;43.194;27.646;2023-05-10T01:51:00;44.93;;;40.30;;
6027;SDS011;3042;43.194;27.646;2023-05-10T01:53:27;43.33;;;31.30;;
6027;SDS011;3042;43.194;27.646;2023-05-10T01:55:55;58.67;;;40.53;;
6027;SDS011;3042;43.194;27.646;2023-05-10T01:58:25;42.63;;;38.23;;
6027;SDS011;3042;43.194;27.646;2023-05-10T02:00:54;43.50;;;34.20;;
6027;SDS011;3042;43.194;27.646;2023-05-10T02:03:24;50.40;;;43.97;;
6027;SDS011;3042;43.194;27.646;2023-05-10T02:05:55;57.87;;;36.50;;
6027;SDS011;3042;43.194;27.646;2023-05-10T02:08:23;56.00;;;38.23;;
6027;SDS011;3042;43.194;27.646;2023-05-10T02:10:52;53.47;;;36.50;;
6027;SDS011;3042;43.194;27.646;2023-05-10T02:13:22;58.47;;;37.80;;
6027;SDS011;3042;43.194;27.646;2023-05-10T02:15:51;52.97;;;39.77;;
6027;SDS011;3042;43.194;27.646;2023-05-10T02:18:19;40.23;;;35.00;;
6027;SDS011;3042;43.194;27.646;2023-05-10T02:20:48;47.23;;;37.50;;
6027;SDS011;3042;43.194;27.646;2023-05-10T02:23:20;48.70;;;38.80;;
6027;SDS011;3042;43.194;27.646;2023-05-10T02:25:48;52.87;;;35.80;;
6027;SDS011;3042;43.194;27.646;2023-05-10T02:28:18;44.07;;;38.87;;
6027;SDS011;3042;43.194;27.646;2023-05-10T02:30:46;124.43;;;51.00;;
6027;SDS011;3042;43.194;27.646;2023-05-10T02:33:14;80.10;;;36.87;;
6027;SDS011;3042;43.194;27.646;2023-05-10T02:35:41;40.00;;;34.47;;
6027;SDS011;3042;43.194;27.646;2023-05-10T02:38:09;42.97;;;34.83;;
6027;SDS011;3042;43.194;27.646;2023-05-10T02:40:39;45.40;;;33.87;;
6027;SDS011;3042;43.194;27.646;2023-05-10T02:43:09;34.33;;;30.67;;
6027;SDS011;3042;43.194;27.646;2023-05-10T02:45:39;34.47;;;30.83;;
6027;SDS011;3042;43.194;27.646;2023-05-10T02:48:07;34.27;;;30.83;;
6027;SDS011;3042;43.194;27.646;2023-05-10T02:50:35;39.43;;;31.10;;
6027;SDS011;3042;43.194;27.646;2023-05-10T02:53:06;43.00;;;31.40;;
6027;SDS011;3042;43.194;27.646;2023-05-10T02:55:40;39.43;;;31.80;;
6027;SDS011;3042;43.194;27.646;2023-05-10T02:58:09;51.37;;;34.67;;
6027;SDS011;3042;43.194;27.646;2023-05-10T03:00:36;38.53;;;34.43;;
6027;SDS011;3042;43.194;27.646;2023-05-10T03:03:03;38.57;;;34.33;;
6027;SDS011;3042;43.194;27.646;2023-05-10T03:05:30;36.70;;;32.87;;
6027;SDS011;3042;43.194;27.646;2023-05-10T03:07:58;40.23;;;31.27;;
6027;SDS011;3042;43.194;27.646;2023-05-10T03:10:29;34.37;;;31.03;;
6027;SDS011;3042;43.194;27.646;2023-05-10T03:13:04;36.40;;;32.53;;
6027;SDS011;3042;43.194;27.646;2023-05-10T03:15:40;53.80;;;29.17;;
6027;SDS011;3042;43.194;27.646;2023-05-10T03:18:15;67.93;;;29.43;;
6027;SDS011;3042;43.194;27.646;2023-05-10T03:20:48;39.03;;;29.67;;
6027;SDS011;3042;43.194;27.646;2023-05-10T03:23:21;35.40;;;28.97;;
6027;SDS011;3042;43.194;27.646;2023-05-10T03:25:53;34.80;;;28.10;;
6027;SDS011;3042;43.194;27.646;2023-05-10T03:28:22;45.30;;;28.90;;
6027;SDS011;3042;43.194;27.646;2023-05-10T03:30:54;34.27;;;28.17;;
6027;SDS011;3042;43.194;27.646;2023-05-10T03:33:22;35.20;;;30.13;;
6027;SDS011;3042;43.194;27.646;2023-05-10T03:35:50;47.70;;;28.90;;
6027;SDS011;3042;43.194;27.646;2023-05-10T03:38:17;37.30;;;29.43;;
6027;SDS011;3042;43.194;27.646;2023-05-10T03:40:44;51.73;;;30.00;;
6027;SDS011;3042;43.194;27.646;2023-05-10T03:43:11;50.10;;;29.90;;
6027;SDS011;3042;43.194;27.646;2023-05-10T03:45:40;57.33;;;29.63;;
6027;SDS011;3042;43.194;27.646;2023-05-10T03:48:07;56.00;;;29.80;;
6027;SDS011;3042;43.194;27.646;2023-05-10T03:50:34;50.53;;;29.27;;
6027;SDS011;3042;43.194;27.646;2023-05-10T03:53:01;37.53;;;25.20;;
6027;SDS011;3042;43.194;27.646;2023-05-10T03:55:28;32.10;;;24.17;;
6027;SDS011;3042;43.194;27.646;2023-05-10T03:57:59;25.03;;;23.03;;
6027;SDS011;3042;43.194;27.646;2023-05-10T04:00:26;26.03;;;23.40;;
6027;SDS011;3042;43.194;27.646;2023-05-10T04:02:55;25.03;;;21.43;;
6027;SDS011;3042;43.194;27.646;2023-05-10T04:05:22;26.27;;;22.17;;
6027;SDS011;3042;43.194;27.646;2023-05-10T04:07:49;24.70;;;22.50;;
6027;SDS011;3042;43.194;27.646;2023-05-10T04:10:16;25.07;;;22.47;;
6027;SDS011;3042;43.194;27.646;2023-05-10T04:12:43;43.93;;;25.47;;
6027;SDS011;3042;43.194;27.646;2023-05-10T04:15:11;45.33;;;25.23;;
6027;SDS011;3042;43.194;27.646;2023-05-10T04:17:38;38.47;;;23.23;;
6027;SDS011;3042;43.194;27.646;2023-05-10T04:20:07;41.73;;;25.47;;
6027;SDS011;3042;43.194;27.646;2023-05-10T04:22:35;57.17;;;27.30;;
6027;SDS011;3042;43.194;27.646;2023-05-10T04:25:02;73.47;;;29.63;;
6027;SDS011;3042;43.194;27.646;2023-05-10T04:27:29;56.70;;;26.80;;
6027;SDS011;3042;43.194;27.646;2023-05-10T04:29:57;48.47;;;28.00;;
6027;SDS011;3042;43.194;27.646;2023-05-10T04:32:24;34.23;;;26.00;;
6027;SDS011;3042;43.194;27.646;2023-05-10T04:34:51;48.00;;;26.13;;
6027;SDS011;3042;43.194;27.646;2023-05-10T04:37:20;45.67;;;25.57;;
6027;SDS011;3042;43.194;27.646;2023-05-10T04:39:48;42.87;;;27.03;;
6027;SDS011;3042;43.194;27.646;2023-05-10T04:42:15;58.90;;;25.10;;
6027;SDS011;3042;43.194;27.646;2023-05-10T04:44:42;29.30;;;25.50;;
6027;SDS011;3042;43.194;27.646;2023-05-10T04:47:09;44.60;;;25.37;;
6027;SDS011;3042;43.194;27.646;2023-05-10T04:49:38;36.10;;;23.80;;
6027;SDS011;3042;43.194;27.646;2023-05-10T04:52:05;91.60;;;30.43;;
6027;SDS011;3042;43.194;27.646;2023-05-10T04:54:33;41.57;;;22.60;;
6027;SDS011;3042;43.194;27.646;2023-05-10T04:57:01;24.00;;;21.47;;
6027;SDS011;3042;43.194;27.646;2023-05-10T04:59:28;29.30;;;21.10;;
6027;SDS011;3042;43.194;27.646;2023-05-10T05:01:55;141.67;;;35.33;;
6027;SDS011;3042;43.194;27.646;2023-05-10T05:04:22;60.27;;;25.10;;
6027;SDS011;3042;43.194;27.646;2023-05-10T05:06:49;26.53;;;21.97;;
6027;SDS011;3042;43.194;27.646;2023-05-10T05:09:16;47.40;;;25.60;;
6027;SDS011;3042;43.194;27.646;2023-05-10T05:11:45;27.33;;;24.50;;
6027;SDS011;3042;43.194;27.646;2023-05-10T05:14:12;32.03;;;24.43;;
6027;SDS011;3042;43.194;27.646;2023-05-10T05:16:39;32.40;;;29.13;;
6027;SDS011;3042;43.194;27.646;2023-05-10T05:19:06;86.67;;;30.20;;
6027;SDS011;3042;43.194;27.646;2023-05-10T05:21:34;33.57;;;28.27;;
6027;SDS011;3042;43.194;27.646;2023-05-10T05:24:01;50.40;;;36.27;;
6027;SDS011;3042;43.194;27.646;2023-05-10T05:26:28;64.53;;;37.90;;
6027;SDS011;3042;43.194;27.646;2023-05-10T05:28:56;44.47;;;39.87;;
6027;SDS011;3042;43.194;27.646;2023-05-10T05:31:23;97.17;;;62.17;;
6027;SDS011;3042;43.194;27.646;2023-05-10T05:33:51;70.37;;;51.70;;
6027;SDS011;3042;43.194;27.646;2023-05-10T05:36:21;55.13;;;48.83;;
6027;SDS011;3042;43.194;27.646;2023-05-10T05:38:54;83.80;;;68.47;;
6027;SDS011;3042;43.194;27.646;2023-05-10T05:41:22;140.87;;;96.23;;
6027;SDS011;3042;43.194;27.646;2023-05-10T05:43:50;116.33;;;97.93;;
6027;SDS011;3042;43.194;27.646;2023-05-10T05:46:19;63.43;;;49.20;;
6027;SDS011;3042;43.194;27.646;2023-05-10T05:48:46;50.13;;;40.97;;
6027;SDS011;3042;43.194;27.646;2023-05-10T05:51:13;69.23;;;34.10;;
6027;SDS011;3042;43.194;27.646;2023-05-10T05:53:40;29.67;;;26.97;;
6027;SDS011;3042;43.194;27.646;2023-05-10T05:56:07;31.93;;;26.70;;
6027;SDS011;3042;43.194;27.646;2023-05-10T05:58:34;58.70;;;33.10;;
6027;SDS011;3042;43.194;27.646;2023-05-10T06:01:02;48.00;;;32.17;;
6027;SDS011;3042;43.194;27.646;2023-05-10T06:03:30;53.70;;;28.70;;
6027;SDS011;3042;43.194;27.646;2023-05-10T06:05:57;41.87;;;31.30;;
6027;SDS011;3042;43.194;27.646;2023-05-10T06:08:25;75.73;;;32.53;;
6027;SDS011;3042;43.194;27.646;2023-05-10T06:10:52;80.77;;;34.67;;
6027;SDS011;3042;43.194;27.646;2023-05-10T06:13:19;40.97;;;28.77;;
6027;SDS011;3042;43.194;27.646;2023-05-10T06:15:47;35.23;;;25.43;;
6027;SDS011;3042;43.194;27.646;2023-05-10T06:18:14;64.53;;;27.87;;
6027;SDS011;3042;43.194;27.646;2023-05-10T06:20:42;40.00;;;34.00;;
6027;SDS011;3042;43.194;27.646;2023-05-10T06:23:09;47.47;;;29.83;;
6027;SDS011;3042;43.194;27.646;2023-05-10T06:25:37;53.27;;;29.80;;
6027;SDS011;3042;43.194;27.646;2023-05-10T06:28:04;32.63;;;29.60;;
6027;SDS011;3042;43.194;27.646;2023-05-10T06:30:31;27.37;;;24.93;;
6027;SDS011;3042;43.194;27.646;2023-05-10T06:32:58;36.03;;;24.60;;
6027;SDS011;3042;43.194;27.646;2023-05-10T06:35:25;43.63;;;26.60;;
6027;SDS011;3042;43.194;27.646;2023-05-10T06:37:54;64.23;;;26.43;;
6027;SDS011;3042;43.194;27.646;2023-05-10T06:40:21;32.87;;;23.17;;
6027;SDS011;3042;43.194;27.646;2023-05-10T06:42:50;42.37;;;23.47;;
6027;SDS011;3042;43.194;27.646;2023-05-10T06:45:17;64.33;;;24.40;;
6027;SDS011;3042;43.194;27.646;2023-05-10T06:47:44;20.50;;;19.10;;
6027;SDS011;3042;43.194;27.646;2023-05-10T06:50:12;19.13;;;17.83;;
6027;SDS011;3042;43.194;27.646;2023-05-10T06:52:40;22.43;;;19.30;;
6027;SDS011;3042;43.194;27.646;2023-05-10T06:55:09;75.63;;;24.57;;
6027;SDS011;3042;43.194;27.646;2023-05-10T06:57:36;23.27;;;21.13;;
6027;SDS011;3042;43.194;27.646;2023-05-10T07:00:04;22.00;;;20.33;;
6027;SDS011;3042;43.194;27.646;2023-05-10T07:02:32;21.80;;;20.10;;
6027;SDS011;3042;43.194;27.646;2023-05-10T07:05:00;33.97;;;23.20;;
6027;SDS011;3042;43.194;27.646;2023-05-10T07:07:27;24.13;;;21.90;;
6027;SDS011;3042;43.194;27.646;2023-05-10T07:09:54;45.43;;;22.43;;
6027;SDS011;3042;43.194;27.646;2023-05-10T07:12:24;23.87;;;21.53;;
6027;SDS011;3042;43.194;27.646;2023-05-10T07:14:51;24.67;;;22.37;;
6027;SDS011;3042;43.194;27.646;2023-05-10T07:17:18;62.90;;;23.60;;
6027;SDS011;3042;43.194;27.646;2023-05-10T07:19:46;25.60;;;21.77;;
6027;SDS011;3042;43.194;27.646;2023-05-10T07:22:13;25.53;;;19.67;;
6027;SDS011;3042;43.194;27.646;2023-05-10T07:24:40;23.83;;;21.47;;
6027;SDS011;3042;43.194;27.646;2023-05-10T07:27:07;22.20;;;20.70;;
6027;SDS011;3042;43.194;27.646;2023-05-10T07:29:36;20.73;;;18.70;;
6027;SDS011;3042;43.194;27.646;2023-05-10T07:32:03;21.77;;;20.33;;
6027;SDS011;3042;43.194;27.646;2023-05-10T07:34:30;26.77;;;18.23;;
6027;SDS011;3042;43.194;27.646;2023-05-10T07:36:58;19.70;;;18.43;;
6027;SDS011;3042;43.194;27.646;2023-05-10T07:39:25;21.33;;;18.97;;
6027;SDS011;3042;43.194;27.646;2023-05-10T07:41:52;33.30;;;22.13;;
6027;SDS011;3042;43.194;27.646;2023-05-10T07:44:20;48.27;;;21.80;;
6027;SDS011;3042;43.194;27.646;2023-05-10T07:46:48;20.07;;;18.70;;
6027;SDS011;3042;43.194;27.646;2023-05-10T07:49:16;20.40;;;18.70;;
6027;SDS011;3042;43.194;27.646;2023-05-10T07:51:43;19.43;;;17.73;;
6027;SDS011;3042;43.194;27.646;2023-05-10T07:54:10;22.60;;;20.53;;
6027;SDS011;3042;43.194;27.646;2023-05-10T07:56:37;21.40;;;19.57;;
6027;SDS011;3042;43.194;27.646;2023-05-10T07:59:07;37.73;;;22.63;;
6027;SDS011;3042;43.194;27.646;2023-05-10T08:01:34;23.10;;;20.70;;
6027;SDS011;3042;43.194;27.646;2023-05-10T08:04:02;23.10;;;21.00;;
6027;SDS011;3042;43.194;27.646;2023-05-10T08:06:30;63.10;;;26.23;;
6027;SDS011;3042;43.194;27.646;2023-05-10T08:08:57;42.90;;;23.80;;
6027;SDS011;3042;43.194;27.646;2023-05-10T08:11:24;25.63;;;23.70;;
6027;SDS011;3042;43.194;27.646;2023-05-10T08:13:52;25.10;;;23.00;;
6027;SDS011;3042;43.194;27.646;2023-05-10T08:16:20;36.50;;;23.00;;
6027;SDS011;3042;43.194;27.646;2023-05-10T08:18:47;22.97;;;21.40;;
6027;SDS011;3042;43.194;27.646;2023-05-10T08:21:17;23.60;;;20.90;;
6027;SDS011;3042;43.194;27.646;2023-05-10T08:23:44;50.47;;;20.87;;
6027;SDS011;3042;43.194;27.646;2023-05-10T08:26:11;35.83;;;22.17;;
6027;SDS011;3042;43.194;27.646;2023-05-10T08:28:38;21.63;;;19.53;;
6027;SDS011;3042;43.194;27.646;2023-05-10T08:31:05;21.20;;;19.80;;
6027;SDS011;3042;43.194;27.646;2023-05-10T08:33:33;20.10;;;18.13;;
6027;SDS011;3042;43.194;27.646;2023-05-10T08:36:00;21.20;;;19.20;;
6027;SDS011;3042;43.194;27.646;2023-05-10T08:38:29;18.83;;;17.80;;
6027;SDS011;3042;43.194;27.646;2023-05-10T08:40:56;24.60;;;22.10;;
6027;SDS011;3042;43.194;27.646;2023-05-10T08:43:26;27.53;;;22.57;;
6027;SDS011;3042;43.194;27.646;2023-05-10T08:45:55;22.73;;;20.67;;
6027;SDS011;3042;43.194;27.646;2023-05-10T08:48:23;38.37;;;27.47;;
6027;SDS011;3042;43.194;27.646;2023-05-10T08:50:52;23.30;;;21.50;;
6027;SDS011;3042;43.194;27.646;2023-05-10T08:53:21;24.43;;;22.00;;
6027;SDS011;3042;43.194;27.646;2023-05-10T08:55:53;29.07;;;23.37;;
6027;SDS011;3042;43.194;27.646;2023-05-10T08:58:20;21.50;;;20.00;;
6027;SDS011;3042;43.194;27.646;2023-05-10T09:00:48;23.47;;;21.50;;
6027;SDS011;3042;43.194;27.646;2023-05-10T09:03:16;19.60;;;18.33;;
6027;SDS011;3042;43.194;27.646;2023-05-10T09:05:44;22.93;;;20.90;;
6027;SDS011;3042;43.194;27.646;2023-05-10T09:08:12;23.20;;;21.70;;
6027;SDS011;3042;43.194;27.646;2023-05-10T09:10:41;35.23;;;21.70;;
6027;SDS011;3042;43.194;27.646;2023-05-10T09:13:11;24.00;;;21.90;;
6027;SDS011;3042;43.194;27.646;2023-05-10T09:15:40;22.37;;;20.00;;
6027;SDS011;3042;43.194;27.646;2023-05-10T09:18:08;31.73;;;22.70;;
6027;SDS011;3042;43.194;27.646;2023-05-10T09:20:35;19.73;;;18.00;;
6027;SDS011;3042;43.194;27.646;2023-05-10T09:23:04;20.50;;;18.47;;
6027;SDS011;3042;43.194;27.646;2023-05-10T09:25:34;20.13;;;18.50;;
6027;SDS011;3042;43.194;27.646;2023-05-10T09:28:05;20.93;;;18.03;;
6027;SDS011;3042;43.194;27.646;2023-05-10T09:30:36;20.50;;;18.20;;
6027;SDS011;3042;43.194;27.646;2023-05-10T09:33:04;24.30;;;21.80;;
6027;SDS011;3042;43.194;27.646;2023-05-10T09:35:32;26.07;;;24.23;;
6027;SDS011;3042;43.194;27.646;2023-05-10T09:38:00;20.77;;;19.43;;
6027;SDS011;3042;43.194;27.646;2023-05-10T09:40:30;23.70;;;21.87;;
6027;SDS011;3042;43.194;27.646;2023-05-10T09:42:58;26.40;;;20.40;;
6027;SDS011;3042;43.194;27.646;2023-05-10T09:45:27;19.30;;;17.80;;
6027;SDS011;3042;43.194;27.646;2023-05-10T09:47:56;22.20;;;20.00;;
6027;SDS011;3042;43.194;27.646;2023-05-10T09:50:24;22.50;;;20.17;;
6027;SDS011;3042;43.194;27.646;2023-05-10T09:52:52;20.83;;;19.13;;
6027;SDS011;3042;43.194;27.646;2023-05-10T09:55:22;23.37;;;21.43;;
6027;SDS011;3042;43.194;27.646;2023-05-10T09:57:58;20.90;;;19.43;;
6027;SDS011;3042;43.194;27.646;2023-05-10T10:00:26;21.70;;;19.83;;
6027;SDS011;3042;43.194;27.646;2023-05-10T10:02:56;22.37;;;20.40;;
6027;SDS011;3042;43.194;27.646;2023-05-10T10:05:27;20.13;;;18.33;;
6027;SDS011;3042;43.194;27.646;2023-05-10T10:07:55;32.67;;;23.37;;
6027;SDS011;3042;43.194;27.646;2023-05-10T10:10:23;27.20;;;20.20;;
6027;SDS011;3042;43.194;27.646;2023-05-10T10:12:51;22.80;;;20.60;;
6027;SDS011;3042;43.194;27.646;2023-05-10T10:15:18;32.87;;;21.80;;
6027;SDS011;3042;43.194;27.646;2023-05-10T10:17:47;61.90;;;21.50;;
6027;SDS011;3042;43.194;27.646;2023-05-10T10:20:18;28.73;;;23.17;;
6027;SDS011;3042;43.194;27.646;2023-05-10T10:22:47;21.33;;;19.63;;
6027;SDS011;3042;43.194;27.646;2023-05-10T10:25:16;54.07;;;24.63;;
6027;SDS011;3042;43.194;27.646;2023-05-10T10:27:49;34.30;;;21.20;;
6027;SDS011;3042;43.194;27.646;2023-05-10T10:30:27;24.10;;;17.90;;
6027;SDS011;3042;43.194;27.646;2023-05-10T10:33:13;24.33;;;20.73;;
6027;SDS011;3042;43.194;27.646;2023-05-10T10:36:00;64.57;;;25.10;;
6027;SDS011;3042;43.194;27.646;2023-05-10T10:38:35;22.53;;;18.20;;
6027;SDS011;3042;43.194;27.646;2023-05-10T10:41:08;21.10;;;16.83;;
6027;SDS011;3042;43.194;27.646;2023-05-10T10:43:36;36.07;;;18.40;;
6027;SDS011;3042;43.194;27.646;2023-05-10T10:46:10;24.10;;;17.47;;
6027;SDS011;3042;43.194;27.646;2023-05-10T10:48:39;23.60;;;17.70;;
6027;SDS011;3042;43.194;27.646;2023-05-10T10:51:08;24.20;;;21.60;;
6027;SDS011;3042;43.194;27.646;2023-05-10T10:53:36;39.70;;;18.90;;
6027;SDS011;3042;43.194;27.646;2023-05-10T10:56:05;51.67;;;22.60;;
6027;SDS011;3042;43.194;27.646;2023-05-10T10:58:36;25.30;;;23.27;;
6027;SDS011;3042;43.194;27.646;2023-05-10T11:01:10;24.27;;;21.73;;
6027;SDS011;3042;43.194;27.646;2023-05-10T11:03:39;25.33;;;23.27;;
6027;SDS011;3042;43.194;27.646;2023-05-10T11:06:08;23.80;;;21.40;;
6027;SDS011;3042;43.194;27.646;2023-05-10T11:08:41;40.23;;;23.40;;
6027;SDS011;3042;43.194;27.646;2023-05-10T11:11:17;23.23;;;20.80;;
6027;SDS011;3042;43.194;27.646;2023-05-10T11:13:46;21.27;;;19.60;;
6027;SDS011;3042;43.194;27.646;2023-05-10T11:16:15;20.03;;;18.40;;
6027;SDS011;3042;43.194;27.646;2023-05-10T11:18:54;19.97;;;18.20;;
6027;SDS011;3042;43.194;27.646;2023-05-10T11:21:28;122.73;;;26.80;;
6027;SDS011;3042;43.194;27.646;2023-05-10T11:23:55;19.63;;;18.33;;
6027;SDS011;3042;43.194;27.646;2023-05-10T11:26:24;19.67;;;18.03;;
6027;SDS011;3042;43.194;27.646;2023-05-10T11:28:59;73.90;;;23.50;;
6027;SDS011;3042;43.194;27.646;2023-05-10T11:31:27;47.53;;;22.70;;
6027;SDS011;3042;43.194;27.646;2023-05-10T11:33:55;40.10;;;22.73;;
6027;SDS011;3042;43.194;27.646;2023-05-10T11:36:25;18.73;;;16.97;;
6027;SDS011;3042;43.194;27.646;2023-05-10T11:38:56;20.90;;;19.40;;
6027;SDS011;3042;43.194;27.646;2023-05-10T11:41:24;20.63;;;19.23;;
6027;SDS011;3042;43.194;27.646;2023-05-10T11:43:51;17.80;;;16.53;;
6027;SDS011;3042;43.194;27.646;2023-05-10T11:46:20;30.37;;;18.63;;
6027;SDS011;3042;43.194;27.646;2023-05-10T11:48:50;23.87;;;17.73;;
6027;SDS011;3042;43.194;27.646;2023-05-10T11:51:19;18.87;;;17.10;;
6027;SDS011;3042;43.194;27.646;2023-05-10T11:53:49;20.80;;;18.90;;
6027;SDS011;3042;43.194;27.646;2023-05-10T11:56:19;23.73;;;21.17;;
6027;SDS011;3042;43.194;27.646;2023-05-10T11:58:52;23.00;;;21.10;;
6027;SDS011;3042;43.194;27.646;2023-05-10T12:01:20;21.67;;;19.70;;
6027;SDS011;3042;43.194;27.646;2023-05-10T12:03:49;31.20;;;19.20;;
6027;SDS011;3042;43.194;27.646;2023-05-10T12:06:18;22.83;;;20.67;;
6027;SDS011;3042;43.194;27.646;2023-05-10T12:08:46;30.47;;;18.37;;
6027;SDS011;3042;43.194;27.646;2023-05-10T12:11:26;20.87;;;19.03;;
6027;SDS011;3042;43.194;27.646;2023-05-10T12:14:03;22.87;;;20.83;;
6027;SDS011;3042;43.194;27.646;2023-05-10T12:16:49;20.67;;;18.57;;
6027;SDS011;3042;43.194;27.646;2023-05-10T12:19:18;24.77;;;19.60;;
6027;SDS011;3042;43.194;27.646;2023-05-10T12:21:46;35.70;;;21.20;;
6027;SDS011;3042;43.194;27.646;2023-05-10T12:24:13;29.90;;;20.70;;
6027;SDS011;3042;43.194;27.646;2023-05-10T12:26:44;20.03;;;18.30;;
6027;SDS011;3042;43.194;27.646;2023-05-10T12:29:12;31.50;;;23.03;;
6027;SDS011;3042;43.194;27.646;2023-05-10T12:31:50;45.90;;;20.40;;
6027;SDS011;3042;43.194;27.646;2023-05-10T12:34:22;26.47;;;18.77;;
6027;SDS011;3042;43.194;27.646;2023-05-10T12:36:53;18.17;;;15.77;;
6027;SDS011;3042;43.194;27.646;2023-05-10T12:39:20;35.93;;;20.50;;
6027;SDS011;3042;43.194;27.646;2023-05-10T12:41:49;19.27;;;17.87;;
6027;SDS011;3042;43.194;27.646;2023-05-10T12:44:17;22.70;;;15.57;;
6027;SDS011;3042;43.194;27.646;2023-05-10T12:46:45;18.37;;;16.50;;
6027;SDS011;3042;43.194;27.646;2023-05-10T12:49:12;18.20;;;16.80;;
6027;SDS011;3042;43.194;27.646;2023-05-10T12:51:39;20.30;;;18.00;;
6027;SDS011;3042;43.194;27.646;2023-05-10T12:54:06;20.33;;;18.53;;
6027;SDS011;3042;43.194;27.646;2023-05-10T12:56:33;19.33;;;17.60;;
6027;SDS011;3042;43.194;27.646;2023-05-10T12:59:03;18.73;;;17.17;;
6027;SDS011;3042;43.194;27.646;2023-05-10T13:01:31;24.70;;;22.70;;
6027;SDS011;3042;43.194;27.646;2023-05-10T13:03:58;21.07;;;19.83;;
6027;SDS011;3042;43.194;27.646;2023-05-10T13:06:25;21.93;;;18.80;;
6027;SDS011;3042;43.194;27.646;2023-05-10T13:08:52;18.80;;;17.63;;
6027;SDS011;3042;43.194;27.646;2023-05-10T13:11:20;37.13;;;23.90;;
6027;SDS011;3042;43.194;27.646;2023-05-10T13:13:47;40.67;;;22.07;;
6027;SDS011;3042;43.194;27.646;2023-05-10T13:16:15;26.40;;;24.43;;
6027;SDS011;3042;43.194;27.646;2023-05-10T13:19:01;23.83;;;22.13;;
6027;SDS011;3042;43.194;27.646;2023-05-10T13:21:32;19.33;;;16.90;;
6027;SDS011;3042;43.194;27.646;2023-05-10T13:23:59;28.33;;;19.10;;
6027;SDS011;3042;43.194;27.646;2023-05-10T13:26:26;23.13;;;17.80;;
6027;SDS011;3042;43.194;27.646;2023-05-10T13:28:53;16.93;;;15.87;;
6027;SDS011;3042;43.194;27.646;2023-05-10T13:31:22;19.97;;;18.13;;
6027;SDS011;3042;43.194;27.646;2023-05-10T13:33:49;32.90;;;21.50;;
6027;SDS011;3042;43.194;27.646;2023-05-10T13:36:16;27.37;;;19.97;;
6027;SDS011;3042;43.194;27.646;2023-05-10T13:38:43;25.30;;;22.70;;
6027;SDS011;3042;43.194;27.646;2023-05-10T13:41:10;36.33;;;23.20;;
6027;SDS011;3042;43.194;27.646;2023-05-10T13:43:38;25.60;;;23.50;;
6027;SDS011;3042;43.194;27.646;2023-05-10T13:46:05;25.10;;;22.40;;
6027;SDS011;3042;43.194;27.646;2023-05-10T13:48:33;23.70;;;22.10;;
6027;SDS011;3042;43.194;27.646;2023-05-10T13:51:01;17.37;;;16.27;;
6027;SDS011;3042;43.194;27.646;2023-05-10T13:53:30;17.40;;;16.20;;
6027;SDS011;3042;43.194;27.646;2023-05-10T13:59:09;67.50;;;20.40;;
6027;SDS011;3042;43.194;27.646;2023-05-10T14:01:37;52.20;;;21.20;;
6027;SDS011;3042;43.194;27.646;2023-05-10T14:04:07;27.47;;;23.03;;
6027;SDS011;3042;43.194;27.646;2023-05-10T14:06:36;25.10;;;22.53;;
6027;SDS011;3042;43.194;27.646;2023-05-10T14:09:03;32.17;;;20.47;;
6027;SDS011;3042;43.194;27.646;2023-05-10T14:11:31;23.60;;;21.30;;
6027;SDS011;3042;43.194;27.646;2023-05-10T14:13:58;21.80;;;20.50;;
6027;SDS011;3042;43.194;27.646;2023-05-10T14:16:25;32.37;;;20.00;;
6027;SDS011;3042;43.194;27.646;2023-05-10T14:18:53;41.80;;;22.03;;
6027;SDS011;3042;43.194;27.646;2023-05-10T14:21:21;25.50;;;22.03;;
6027;SDS011;3042;43.194;27.646;2023-05-10T14:23:48;38.93;;;27.27;;
6027;SDS011;3042;43.194;27.646;2023-05-10T14:26:15;18.60;;;16.80;;
6027;SDS011;3042;43.194;27.646;2023-05-10T14:28:42;19.50;;;17.90;;
6027;SDS011;3042;43.194;27.646;2023-05-10T14:31:10;32.73;;;20.57;;
6027;SDS011;3042;43.194;27.646;2023-05-10T14:33:37;25.93;;;16.90;;
6027;SDS011;3042;43.194;27.646;2023-05-10T14:36:05;24.07;;;22.13;;
6027;SDS011;3042;43.194;27.646;2023-05-10T14:38:35;17.17;;;16.27;;
6027;SDS011;3042;43.194;27.646;2023-05-10T14:41:02;18.00;;;16.80;;
6027;SDS011;3042;43.194;27.646;2023-05-10T14:43:29;20.07;;;18.60;;
6027;SDS011;3042;43.194;27.646;2023-05-10T14:45:56;25.63;;;21.73;;
6027;SDS011;3042;43.194;27.646;2023-05-10T14:48:23;21.60;;;20.37;;
6027;SDS011;3042;43.194;27.646;2023-05-10T14:50:51;22.90;;;21.60;;